createdAt,value
2023-06-19T03:01:44.028Z,21.74
2023-06-19T03:02:50.000Z,21.74
2023-06-19T03:03:53.419Z,21.75
2023-06-19T03:04:55.246Z,21.74
2023-06-19T03:06:00.925Z,21.74
2023-06-19T03:07:04.047Z,21.74
2023-06-19T03:08:08.075Z,21.74
2023-06-19T03:09:13.430Z,21.73
2023-06-19T03:10:16.245Z,21.72
2023-06-19T03:11:18.039Z,21.70
2023-06-19T03:12:20.772Z,21.68
2023-06-19T03:13:22.590Z,21.69
2023-06-19T03:14:25.378Z,21.72
2023-06-19T03:15:27.266Z,21.73
2023-06-19T03:16:30.530Z,21.72
2023-06-19T03:17:33.775Z,21.68
2023-06-19T03:18:36.630Z,21.72
2023-06-19T03:19:38.464Z,21.68
2023-06-19T03:20:41.224Z,21.70
2023-06-19T03:21:43.268Z,21.69
2023-06-19T03:22:46.595Z,21.61
2023-06-19T03:23:51.286Z,21.60
2023-06-19T03:24:56.057Z,21.56
2023-06-19T03:25:58.883Z,21.52
2023-06-19T03:27:01.948Z,21.51
2023-06-19T03:28:04.313Z,21.51
2023-06-19T03:29:07.213Z,21.53
2023-06-19T03:30:23.989Z,21.55
2023-06-19T03:31:28.389Z,21.52
2023-06-19T03:32:32.386Z,21.54
2023-06-19T03:33:36.965Z,21.52
2023-06-19T03:34:38.800Z,21.49
2023-06-19T03:35:44.965Z,21.50
2023-06-19T03:36:56.714Z,21.52
2023-06-19T03:37:58.456Z,21.52
2023-06-19T03:39:01.331Z,21.52
2023-06-19T03:40:06.850Z,21.53
2023-06-19T03:41:14.015Z,21.52
2023-06-19T03:42:15.924Z,21.53
2023-06-19T03:43:21.278Z,21.45
2023-06-19T03:44:23.178Z,21.40
2023-06-19T03:45:25.931Z,21.39
2023-06-19T03:46:27.861Z,21.39
2023-06-19T03:47:30.615Z,21.35
2023-06-19T03:48:32.547Z,21.37
2023-06-19T03:49:36.700Z,21.40
2023-06-19T03:50:38.542Z,21.41
2023-06-19T03:51:43.866Z,21.41
2023-06-19T03:52:45.699Z,21.36
2023-06-19T03:53:48.455Z,21.36
2023-06-19T03:54:53.159Z,21.36
2023-06-19T03:55:56.761Z,21.32
2023-06-19T03:56:58.725Z,21.31
2023-06-19T03:58:01.491Z,21.30
2023-06-19T03:59:03.477Z,21.28
2023-06-19T04:00:08.831Z,21.30
2023-06-19T04:01:15.197Z,21.27
2023-06-19T04:02:17.026Z,21.27
2023-06-19T04:03:19.902Z,21.26
2023-06-19T04:04:21.794Z,21.26
2023-06-19T04:05:27.219Z,21.23
2023-06-19T04:06:29.102Z,21.18
2023-06-19T04:07:32.758Z,21.21
2023-06-19T04:08:34.925Z,21.20
2023-06-19T04:09:37.672Z,21.19
2023-06-19T04:10:39.435Z,21.16
2023-06-19T04:11:42.122Z,21.16
2023-06-19T04:12:46.228Z,21.17
2023-06-19T04:13:48.927Z,21.19
2023-06-19T04:14:50.737Z,21.25
2023-06-19T04:15:53.453Z,21.26
2023-06-19T04:16:55.247Z,21.26
2023-06-19T04:17:58.034Z,21.19
2023-06-19T04:19:00.030Z,21.13
2023-06-19T04:20:04.419Z,21.13
2023-06-19T04:21:08.322Z,21.15
2023-06-19T04:22:11.393Z,21.11
2023-06-19T04:23:13.933Z,21.12
2023-06-19T04:24:16.790Z,21.16
2023-06-19T04:25:19.269Z,21.17
2023-06-19T04:26:22.740Z,21.14
2023-06-19T04:27:24.482Z,21.12
2023-06-19T04:28:29.996Z,21.09
2023-06-19T04:29:32.879Z,21.10
2023-06-19T04:30:35.602Z,21.11
2023-06-19T04:31:42.840Z,21.08
2023-06-19T04:32:45.875Z,21.08
2023-06-19T04:33:47.859Z,21.08
2023-06-19T04:34:50.733Z,21.08
2023-06-19T04:35:52.505Z,21.10
2023-06-19T04:36:59.318Z,21.13
2023-06-19T04:38:02.291Z,21.17
2023-06-19T04:39:05.015Z,21.16
2023-06-19T04:40:09.056Z,21.16
2023-06-19T04:41:11.759Z,21.11
2023-06-19T04:42:14.651Z,21.12
2023-06-19T04:43:17.292Z,21.10
2023-06-19T04:44:19.042Z,21.09
2023-06-19T04:45:21.928Z,21.09
2023-06-19T04:46:23.766Z,21.05
2023-06-19T04:47:33.275Z,21.09
2023-06-19T04:48:40.721Z,21.09
2023-06-19T04:49:42.516Z,21.07
2023-06-19T04:50:45.219Z,21.04
2023-06-19T04:51:47.038Z,21.05
2023-06-19T04:52:52.424Z,21.06
2023-06-19T04:53:54.744Z,21.08
2023-06-19T04:54:57.472Z,21.08
2023-06-19T04:56:00.835Z,21.10
2023-06-19T04:57:05.665Z,21.12
2023-06-19T04:58:07.534Z,21.12
2023-06-19T04:59:10.178Z,21.11
2023-06-19T07:08:17.893Z,22.69
2023-06-19T07:09:22.521Z,22.66
2023-06-19T07:10:26.279Z,22.68
2023-06-19T07:11:28.608Z,22.74
2023-06-19T07:12:31.332Z,22.76
2023-06-19T07:13:33.149Z,22.78
2023-06-19T07:14:35.823Z,22.86
2023-06-19T07:15:37.644Z,22.92
2023-06-19T07:16:40.398Z,22.97
2023-06-19T07:17:42.338Z,23.06
2023-06-19T07:18:45.109Z,23.14
2023-06-19T07:19:47.795Z,23.19
2023-06-19T07:20:49.608Z,23.29
2023-06-19T07:21:52.858Z,23.36
2023-06-19T07:22:55.603Z,23.37
2023-06-19T07:23:59.245Z,23.39
2023-06-19T07:25:02.369Z,23.40
2023-06-19T07:26:05.062Z,23.43
2023-06-19T07:27:08.083Z,23.53
2023-06-19T07:28:10.052Z,23.57
2023-06-19T07:29:12.759Z,23.54
2023-06-19T07:30:16.815Z,23.59
2023-06-19T07:31:19.796Z,23.64
2023-06-19T07:32:22.676Z,23.68
2023-06-19T07:33:24.456Z,23.71
2023-06-19T07:34:27.235Z,23.76
2023-06-19T07:35:29.913Z,23.80
2023-06-19T07:36:31.720Z,23.84
2023-06-19T07:37:35.958Z,23.87
2023-06-19T07:38:38.788Z,23.88
2023-06-19T07:39:41.509Z,23.86
2023-06-19T07:40:45.796Z,23.87
2023-06-19T07:41:47.692Z,23.88
2023-06-19T07:42:50.634Z,23.91
2023-06-19T07:43:52.397Z,23.95
2023-06-19T07:44:55.030Z,24.12
2023-06-19T07:45:56.848Z,24.17
2023-06-19T07:46:59.606Z,24.22
2023-06-19T07:48:01.486Z,24.19
2023-06-19T07:49:04.313Z,24.15
2023-06-19T07:50:06.834Z,24.12
2023-06-19T07:51:09.544Z,24.06
2023-06-19T07:52:11.376Z,24.01
2023-06-19T07:53:14.015Z,23.94
2023-06-19T07:54:15.827Z,23.88
2023-06-19T07:55:18.585Z,23.87
2023-06-19T07:56:21.620Z,23.88
2023-06-19T07:57:25.790Z,23.95
2023-06-19T07:58:27.534Z,23.99
2023-06-19T07:59:30.185Z,24.00
2023-06-19T08:00:32.827Z,24.05
2023-06-19T08:01:34.615Z,24.06
2023-06-19T08:02:37.417Z,24.06
2023-06-19T08:03:39.363Z,24.17
2023-06-19T08:04:42.369Z,24.22
2023-06-19T08:05:45.104Z,24.29
2023-06-19T08:06:46.873Z,24.31
2023-06-19T08:07:49.647Z,24.34
2023-06-19T08:08:52.728Z,24.30
2023-06-19T08:10:07.844Z,24.26
2023-06-19T08:11:15.887Z,24.22
2023-06-19T08:12:19.008Z,24.23
2023-06-19T08:13:21.719Z,24.20
2023-06-19T08:14:23.636Z,24.19
2023-06-19T08:15:26.472Z,24.19
2023-06-19T08:16:29.197Z,24.23
2023-06-19T08:17:31.029Z,24.34
2023-06-19T08:18:33.807Z,24.39
2023-06-19T08:19:35.610Z,24.47
2023-06-19T08:20:38.522Z,24.52
2023-06-19T08:21:41.287Z,24.54
2023-06-19T08:22:43.940Z,24.59
2023-06-19T08:23:45.706Z,24.69
2023-06-19T08:24:48.441Z,24.74
2023-06-19T08:25:52.029Z,24.70
2023-06-19T08:26:55.232Z,24.76
2023-06-19T08:27:58.211Z,24.79
2023-06-19T08:29:01.465Z,24.78
2023-06-19T08:30:04.162Z,24.78
2023-06-19T08:31:06.958Z,24.83
2023-06-19T08:32:10.367Z,24.84
2023-06-19T08:33:13.864Z,24.86
2023-06-19T08:34:15.707Z,24.90
2023-06-19T08:35:18.666Z,24.86
2023-06-19T08:36:20.417Z,24.90
2023-06-19T08:37:23.222Z,24.89
2023-06-19T08:38:25.971Z,24.89
2023-06-19T08:39:28.128Z,24.93
2023-06-19T08:40:31.172Z,25.02
2023-06-19T08:41:33.020Z,25.10
2023-06-19T08:42:35.763Z,25.09
2023-06-19T08:43:42.132Z,25.11
2023-06-19T08:44:44.901Z,25.10
2023-06-19T08:45:59.069Z,25.15
2023-06-19T08:47:01.857Z,25.14
2023-06-19T08:48:05.845Z,25.17
2023-06-19T08:49:15.487Z,25.27
2023-06-19T08:50:17.676Z,25.34
2023-06-19T08:51:20.354Z,25.39
2023-06-19T08:52:22.126Z,25.49
2023-06-19T08:53:24.947Z,25.60
2023-06-19T08:54:26.739Z,25.57
2023-06-19T08:55:29.560Z,25.58
2023-06-19T08:56:35.061Z,25.64
2023-06-19T08:57:39.945Z,25.72
2023-06-19T08:58:43.017Z,25.74
2023-06-19T08:59:50.750Z,25.82
2023-06-19T09:00:53.433Z,25.74
2023-06-19T09:01:56.086Z,25.67
2023-06-19T09:03:13.934Z,25.72
2023-06-19T09:04:16.736Z,25.86
2023-06-19T09:05:20.786Z,25.96
2023-06-19T09:06:22.668Z,26.03
2023-06-19T09:07:25.484Z,26.09
2023-06-19T09:08:27.229Z,26.09
2023-06-19T09:09:33.951Z,26.23
2023-06-19T09:10:35.899Z,26.41
2023-06-19T09:11:44.267Z,26.54
2023-06-19T09:12:58.169Z,26.70
2023-06-19T09:14:02.147Z,26.80
2023-06-19T09:15:12.785Z,26.88
2023-06-19T09:16:15.496Z,26.86
2023-06-19T09:17:20.198Z,26.84
2023-06-19T09:18:25.229Z,26.88
2023-06-19T09:19:27.844Z,27.03
2023-06-19T09:20:30.132Z,27.04
2023-06-19T09:21:32.849Z,27.11
2023-06-19T09:22:34.629Z,27.11
2023-06-19T09:23:37.385Z,27.05
2023-06-19T09:24:42.548Z,27.06
2023-06-19T09:25:48.043Z,27.08
2023-06-19T09:26:52.156Z,27.08
2023-06-19T09:27:55.237Z,27.00
2023-06-19T09:28:57.199Z,26.94
2023-06-19T09:30:02.641Z,26.88
2023-06-19T09:31:06.204Z,26.78
2023-06-19T09:32:17.915Z,26.79
2023-06-19T09:33:22.026Z,26.76
2023-06-19T09:34:24.649Z,26.75
2023-06-19T09:35:27.467Z,26.79
2023-06-19T09:36:34.475Z,26.78
2023-06-19T09:37:40.213Z,26.82
2023-06-19T09:38:42.986Z,26.90
2023-06-19T09:39:49.588Z,26.92
2023-06-19T09:40:54.056Z,26.88
2023-06-19T09:42:00.253Z,26.99
2023-06-19T09:43:05.198Z,27.11
2023-06-19T09:44:13.486Z,27.19
2023-06-19T09:45:21.782Z,27.20
2023-06-19T09:46:32.117Z,27.24
2023-06-19T09:47:37.950Z,27.16
2023-06-19T09:48:44.044Z,27.15
2023-06-19T09:49:50.744Z,27.19
2023-06-19T09:50:56.435Z,27.19
2023-06-19T09:51:59.330Z,27.30
2023-06-19T09:53:02.241Z,27.33
2023-06-19T09:54:07.728Z,27.38
2023-06-19T09:55:13.970Z,27.34
2023-06-19T09:56:23.470Z,27.26
2023-06-19T09:57:25.679Z,27.10
2023-06-19T09:58:29.497Z,27.00
2023-06-19T09:59:32.085Z,27.02
2023-06-19T10:00:38.158Z,27.06
2023-06-19T10:01:41.422Z,27.11
2023-06-19T10:02:46.000Z,27.08
2023-06-19T10:03:48.865Z,27.08
2023-06-19T10:04:53.232Z,27.08
2023-06-19T10:06:00.410Z,27.11
2023-06-19T10:07:02.218Z,27.18
2023-06-19T10:08:05.989Z,27.18
2023-06-19T10:09:11.142Z,27.26
2023-06-19T10:10:23.736Z,27.32
2023-06-19T10:11:28.447Z,27.28
2023-06-19T10:12:37.774Z,27.37
2023-06-19T10:13:42.965Z,27.40
2023-06-19T10:14:48.580Z,27.37
2023-06-19T10:15:52.726Z,27.33
2023-06-19T10:16:54.596Z,27.19
2023-06-19T10:18:03.932Z,27.02
2023-06-19T10:19:14.692Z,26.85
2023-06-19T10:20:23.020Z,26.90
2023-06-19T10:21:25.942Z,26.89
2023-06-19T10:22:31.699Z,26.99
2023-06-19T10:23:38.181Z,27.10
2023-06-19T10:24:52.190Z,27.15
2023-06-19T10:25:58.781Z,27.04
2023-06-19T10:27:02.689Z,26.93
2023-06-19T10:28:08.185Z,26.93
2023-06-19T10:29:17.643Z,26.95
2023-06-19T10:30:20.814Z,26.94
2023-06-19T10:31:25.317Z,27.04
2023-06-19T10:32:27.056Z,27.13
2023-06-19T10:33:31.743Z,27.13
2023-06-19T10:34:35.070Z,26.97
2023-06-19T10:35:41.793Z,26.86
2023-06-19T10:36:43.544Z,26.60
2023-06-19T10:37:46.564Z,26.54
2023-06-19T10:38:49.449Z,26.50
2023-06-19T10:39:51.153Z,26.51
2023-06-19T10:40:54.082Z,26.69
2023-06-19T10:41:55.895Z,26.78
2023-06-19T10:42:58.564Z,26.94
2023-06-19T10:44:01.693Z,27.08
2023-06-19T10:45:07.808Z,27.25
2023-06-19T10:46:10.586Z,27.30
2023-06-19T10:47:17.247Z,27.37
2023-06-19T10:48:22.555Z,27.49
2023-06-19T10:49:24.649Z,27.58
2023-06-19T10:50:27.562Z,27.68
2023-06-19T10:51:29.706Z,27.75
2023-06-19T10:52:33.076Z,27.78
2023-06-19T10:53:34.938Z,27.86
2023-06-19T10:54:37.735Z,27.86
2023-06-19T10:55:40.465Z,27.81
2023-06-19T10:56:44.416Z,27.66
2023-06-19T10:57:51.836Z,27.48
2023-06-19T10:58:59.832Z,27.31
2023-06-19T11:00:01.628Z,27.27
2023-06-19T11:01:04.720Z,27.27
2023-06-19T11:02:07.542Z,27.32
2023-06-19T11:03:11.836Z,27.40
2023-06-19T11:04:15.303Z,27.46
2023-06-19T11:05:18.152Z,27.56
2023-06-19T11:06:20.889Z,27.65
2023-06-19T11:07:24.706Z,27.80
2023-06-19T11:08:28.250Z,27.88
2023-06-19T11:09:32.018Z,27.93
2023-06-19T11:10:34.674Z,27.94
2023-06-19T11:11:38.498Z,27.97
2023-06-19T11:12:41.201Z,28.09
2023-06-19T11:13:43.941Z,28.20
2023-06-19T11:14:46.713Z,28.28
2023-06-19T11:15:50.889Z,28.29
2023-06-19T11:16:52.831Z,28.35
2023-06-19T11:17:55.616Z,28.36
2023-06-19T11:18:58.907Z,28.34
2023-06-19T11:20:01.657Z,28.41
2023-06-19T11:21:03.649Z,28.42
2023-06-19T11:22:09.039Z,28.57
2023-06-19T11:23:11.757Z,28.62
2023-06-19T11:24:15.388Z,28.63
2023-06-19T11:25:18.186Z,28.63
2023-06-19T11:26:20.050Z,28.70
2023-06-19T11:27:28.484Z,28.70
2023-06-19T11:28:31.659Z,28.79
2023-06-19T11:29:37.731Z,28.78
2023-06-19T11:30:39.478Z,28.87
2023-06-19T11:31:42.175Z,28.91
2023-06-19T11:32:49.153Z,29.03
2023-06-19T11:33:59.008Z,29.05
2023-06-19T11:35:08.875Z,29.06
2023-06-19T11:36:11.784Z,29.07
2023-06-19T11:37:14.164Z,29.13
2023-06-19T11:38:20.886Z,29.14
2023-06-19T11:39:23.445Z,29.11
2023-06-19T11:40:26.733Z,29.02
2023-06-19T11:41:29.844Z,28.90
2023-06-19T11:42:34.120Z,28.88
2023-06-19T11:43:37.343Z,28.78
2023-06-19T11:44:54.030Z,28.61
2023-06-19T11:46:03.901Z,28.56
2023-06-19T11:47:08.115Z,28.54
2023-06-19T11:48:10.004Z,28.31
2023-06-19T11:49:18.059Z,28.30
2023-06-19T11:50:23.953Z,28.28
2023-06-19T11:51:28.121Z,28.30
2023-06-19T11:52:30.169Z,28.28
2023-06-19T11:53:33.646Z,28.05
2023-06-19T11:54:36.327Z,28.03
2023-06-19T11:55:39.633Z,27.95
2023-06-19T11:56:43.062Z,27.96
2023-06-19T11:57:45.792Z,27.93
2023-06-19T11:58:47.645Z,28.02
2023-06-19T11:59:50.350Z,28.07
2023-06-19T12:00:54.436Z,28.10
2023-06-19T12:01:59.102Z,28.14
2023-06-19T12:03:01.113Z,28.12
2023-06-19T12:04:05.269Z,28.17
2023-06-19T12:05:09.633Z,28.18
2023-06-19T12:06:12.713Z,28.28
2023-06-19T12:07:16.631Z,28.45
2023-06-19T12:08:18.512Z,28.50
2023-06-19T12:09:21.188Z,28.52
2023-06-19T12:10:23.434Z,28.51
2023-06-19T12:11:26.805Z,28.62
2023-06-19T12:12:29.521Z,28.71
2023-06-19T12:13:31.226Z,28.71
2023-06-19T12:14:33.890Z,28.70
2023-06-19T12:15:38.026Z,28.84
2023-06-19T12:16:40.956Z,28.91
2023-06-19T12:17:43.932Z,28.93
2023-06-19T12:18:46.683Z,28.98
2023-06-19T12:19:49.777Z,28.78
2023-06-19T12:20:53.759Z,28.57
2023-06-19T12:21:56.502Z,28.55
2023-06-19T12:22:59.309Z,28.51
2023-06-19T12:24:01.140Z,28.57
2023-06-19T12:25:03.931Z,28.48
2023-06-19T12:26:08.573Z,28.60
2023-06-19T12:27:11.254Z,28.57
2023-06-19T12:28:17.701Z,28.64
2023-06-19T12:29:21.991Z,28.57
2023-06-19T12:30:26.260Z,28.60
2023-06-19T12:31:28.355Z,28.68
2023-06-19T12:32:31.687Z,28.79
2023-06-19T12:33:34.031Z,28.89
2023-06-19T12:34:38.726Z,28.95
2023-06-19T12:35:42.863Z,29.05
2023-06-19T12:36:46.031Z,29.05
2023-06-19T12:37:48.842Z,29.02
2023-06-19T12:38:50.635Z,29.15
2023-06-19T12:39:53.434Z,29.29
2023-06-19T12:40:55.391Z,29.41
2023-06-19T12:41:58.089Z,29.37
2023-06-19T12:43:00.086Z,29.43
2023-06-19T12:44:02.733Z,29.49
2023-06-19T12:45:05.915Z,29.46
2023-06-19T12:46:07.933Z,29.48
2023-06-19T12:47:10.750Z,29.47
2023-06-19T12:48:12.683Z,29.31
2023-06-19T12:49:15.347Z,29.27
2023-06-19T12:50:17.164Z,29.12
2023-06-19T12:51:20.121Z,29.14
2023-06-19T12:52:23.273Z,29.10
2023-06-19T12:53:30.006Z,29.01
2023-06-19T12:54:32.673Z,28.88
2023-06-19T12:55:40.873Z,28.88
2023-06-19T12:56:54.146Z,28.76
2023-06-19T12:57:56.838Z,28.69
2023-06-19T12:58:58.632Z,28.61
2023-06-19T13:00:01.380Z,28.49
2023-06-19T13:01:03.135Z,28.59
2023-06-19T13:02:06.275Z,28.67
2023-06-19T13:03:08.996Z,28.81
2023-06-19T13:04:12.901Z,28.91
2023-06-19T13:05:15.774Z,28.94
2023-06-19T13:06:17.777Z,28.94
2023-06-19T13:07:20.595Z,29.02
2023-06-19T13:08:23.759Z,29.07
2023-06-19T13:09:26.484Z,29.08
2023-06-19T13:10:28.356Z,29.11
2023-06-19T13:11:31.064Z,29.09
2023-06-19T13:12:33.953Z,29.02
2023-06-19T13:13:36.637Z,28.94
2023-06-19T13:14:38.983Z,28.96
2023-06-19T13:15:41.901Z,28.99
2023-06-19T13:16:46.106Z,28.99
2023-06-19T13:17:49.609Z,28.96
2023-06-19T13:18:51.358Z,28.94
2023-06-19T13:19:53.982Z,28.91
2023-06-19T13:20:56.548Z,28.80
2023-06-19T13:21:59.254Z,28.79
2023-06-19T13:23:00.954Z,28.67
2023-06-19T13:24:05.420Z,28.58
2023-06-19T13:26:10.439Z,28.60
2023-06-19T13:27:13.163Z,28.70
2023-06-19T13:28:15.217Z,28.78
2023-06-19T13:29:17.985Z,28.83
2023-06-19T13:30:19.832Z,28.90
2023-06-19T13:31:22.554Z,28.92
2023-06-19T13:32:24.336Z,28.96
2023-06-19T13:33:27.565Z,29.01
2023-06-19T13:34:29.395Z,28.95
2023-06-19T13:35:32.429Z,28.99
2023-06-19T13:36:34.230Z,29.06
2023-06-19T13:37:39.878Z,29.08
2023-06-19T13:38:44.929Z,29.19
2023-06-19T13:39:49.939Z,29.26
2023-06-19T13:40:51.741Z,29.29
2023-06-19T13:41:54.740Z,29.31
2023-06-19T13:42:58.255Z,29.27
2023-06-19T13:44:01.055Z,29.27
2023-06-19T13:45:03.406Z,29.28
2023-06-19T13:46:06.952Z,29.29
2023-06-19T13:47:09.061Z,29.23
2023-06-19T13:48:11.827Z,29.15
2023-06-19T13:49:15.340Z,29.23
2023-06-19T13:50:19.301Z,29.25
2023-06-19T13:51:23.445Z,29.33
2023-06-19T13:52:26.332Z,29.42
2023-06-19T13:53:30.848Z,29.41
2023-06-19T13:54:32.701Z,29.39
2023-06-19T13:55:36.689Z,29.28
2023-06-19T13:56:39.275Z,29.21
2023-06-19T13:57:42.400Z,29.10
2023-06-19T13:58:44.327Z,29.06
2023-06-19T13:59:48.312Z,29.11
2023-06-19T14:00:50.207Z,29.19
2023-06-19T14:01:52.961Z,29.23
2023-06-19T14:02:55.475Z,29.33
2023-06-19T14:03:58.913Z,29.33
2023-06-19T14:05:01.133Z,29.27
2023-06-19T14:06:03.800Z,29.32
2023-06-19T14:07:06.794Z,29.33
2023-06-19T14:08:10.186Z,29.33
2023-06-19T14:09:13.326Z,29.26
2023-06-19T14:10:15.068Z,29.29
2023-06-19T14:11:19.972Z,29.33
2023-06-19T14:12:22.709Z,29.33
2023-06-19T14:13:27.315Z,29.35
2023-06-19T14:14:29.084Z,29.38
2023-06-19T14:15:31.822Z,29.41
2023-06-19T14:16:33.559Z,29.41
2023-06-19T14:17:36.519Z,29.42
2023-06-19T14:18:38.863Z,29.40
2023-06-19T14:19:41.563Z,29.40
2023-06-19T14:20:43.359Z,29.39
2023-06-19T14:21:46.005Z,29.41
2023-06-19T14:22:47.711Z,29.47
2023-06-19T14:23:50.399Z,29.49
2023-06-19T14:24:54.295Z,29.50
2023-06-19T14:25:57.077Z,29.35
2023-06-19T14:27:01.122Z,29.20
2023-06-19T14:28:03.390Z,29.14
2023-06-19T14:29:06.119Z,29.08
2023-06-19T14:30:09.198Z,29.15
2023-06-19T14:31:12.244Z,29.20
2023-06-19T14:32:14.441Z,29.19
2023-06-19T14:33:17.135Z,29.23
2023-06-19T14:34:19.962Z,29.24
2023-06-19T14:35:22.701Z,29.29
2023-06-19T14:36:25.466Z,29.28
2023-06-19T14:37:27.584Z,29.21
2023-06-19T14:38:34.318Z,29.08
2023-06-19T14:39:36.143Z,28.97
2023-06-19T14:40:38.797Z,28.86
2023-06-19T14:41:40.832Z,28.82
2023-06-19T14:42:44.734Z,28.81
2023-06-19T14:43:46.532Z,28.81
2023-06-19T14:44:49.249Z,28.81
2023-06-19T14:45:51.323Z,28.81
2023-06-19T14:46:54.110Z,28.77
2023-06-19T14:47:55.907Z,28.68
2023-06-19T14:48:59.809Z,28.56
2023-06-19T14:50:02.646Z,28.47
2023-06-19T14:51:05.613Z,28.46
2023-06-19T14:52:08.901Z,28.45
2023-06-19T14:53:10.708Z,28.47
2023-06-19T14:54:14.413Z,28.51
2023-06-19T14:55:16.279Z,28.54
2023-06-19T14:56:18.973Z,28.57
2023-06-19T14:57:20.783Z,28.62
2023-06-19T14:58:28.077Z,28.58
2023-06-19T14:59:31.285Z,28.51
2023-06-19T15:00:34.003Z,28.50
2023-06-19T15:01:36.847Z,28.49
2023-06-19T15:02:41.074Z,28.40
2023-06-19T15:03:44.335Z,28.42
2023-06-19T15:05:01.045Z,28.44
2023-06-19T15:06:08.196Z,28.36
2023-06-19T15:07:10.204Z,28.29
2023-06-19T15:08:12.912Z,28.19
2023-06-19T15:09:14.962Z,28.14
2023-06-19T15:10:17.689Z,28.09
2023-06-19T15:11:19.554Z,28.05
2023-06-19T15:12:22.230Z,28.05
2023-06-19T15:13:26.195Z,28.09
2023-06-19T15:14:28.103Z,28.15
2023-06-19T15:15:30.814Z,28.18
2023-06-19T15:16:34.716Z,28.15
2023-06-19T15:17:38.914Z,28.15
2023-06-19T15:18:41.382Z,28.19
2023-06-19T15:19:51.279Z,28.24
2023-06-19T15:20:56.861Z,28.29
2023-06-19T15:21:59.587Z,28.32
2023-06-19T15:23:01.356Z,28.32
2023-06-19T15:24:04.473Z,28.36
2023-06-19T15:25:07.213Z,28.41
2023-06-19T15:26:09.843Z,28.42
2023-06-19T15:27:12.639Z,28.44
2023-06-19T15:28:16.331Z,28.43
2023-06-19T15:29:20.327Z,28.39
2023-06-19T15:30:22.512Z,28.42
2023-06-19T15:31:25.668Z,28.40
2023-06-19T15:32:27.598Z,28.36
2023-06-19T15:33:30.301Z,28.39
2023-06-19T15:34:33.163Z,28.44
2023-06-19T15:35:34.952Z,28.44
2023-06-19T15:36:37.706Z,28.47
2023-06-19T15:37:39.709Z,28.53
2023-06-19T15:38:42.419Z,28.58
2023-06-19T15:39:44.328Z,28.63
2023-06-19T15:40:47.537Z,28.69
2023-06-19T15:41:49.312Z,28.77
2023-06-19T15:42:52.435Z,28.85
2023-06-19T15:43:54.257Z,28.95
2023-06-19T15:44:58.226Z,29.08
2023-06-19T15:46:00.170Z,29.23
2023-06-19T15:47:03.021Z,29.33
2023-06-19T15:48:05.267Z,29.37
2023-06-19T15:49:09.170Z,29.34
2023-06-19T15:50:13.343Z,29.23
2023-06-19T15:51:16.348Z,29.12
2023-06-19T15:52:18.306Z,29.13
2023-06-19T15:53:21.982Z,29.19
2023-06-19T15:54:24.326Z,29.28
2023-06-19T15:55:28.600Z,29.33
2023-06-19T15:56:30.455Z,29.43
2023-06-19T15:57:33.515Z,29.51
2023-06-19T15:58:35.234Z,29.57
2023-06-19T15:59:38.017Z,29.57
2023-06-19T16:00:41.312Z,29.52
2023-06-19T16:01:44.386Z,29.25
2023-06-19T16:02:48.601Z,28.99
2023-06-19T16:03:51.988Z,28.82
2023-06-19T16:04:53.951Z,28.72
2023-06-19T16:07:02.064Z,28.65
2023-06-19T16:08:04.888Z,28.66
2023-06-19T16:09:06.717Z,28.66
2023-06-19T16:10:10.084Z,28.63
2023-06-19T16:11:12.466Z,28.57
2023-06-19T16:12:15.446Z,28.58
2023-06-19T16:13:17.446Z,28.61
2023-06-19T16:14:20.244Z,28.63
2023-06-19T16:15:28.852Z,28.67
2023-06-19T16:16:32.984Z,28.64
2023-06-19T16:17:34.837Z,28.53
2023-06-19T16:18:37.563Z,28.55
2023-06-19T16:19:40.006Z,28.55
2023-06-19T16:20:42.705Z,28.57
2023-06-19T16:21:44.579Z,28.63
2023-06-19T16:22:47.274Z,28.72
2023-06-19T16:23:49.070Z,28.73
2023-06-19T16:24:51.727Z,28.78
2023-06-19T16:25:53.495Z,28.82
2023-06-19T16:26:56.896Z,28.83
2023-06-19T16:28:01.188Z,28.82
2023-06-19T16:29:05.560Z,28.79
2023-06-19T16:30:08.288Z,28.81
2023-06-19T16:31:12.186Z,28.80
2023-06-19T16:32:15.357Z,28.81
2023-06-19T16:33:18.766Z,28.78
2023-06-19T16:34:20.693Z,28.71
2023-06-19T16:35:23.889Z,28.71
2023-06-19T16:36:25.896Z,28.68
2023-06-19T16:37:28.624Z,28.58
2023-06-19T16:38:30.418Z,28.54
2023-06-19T16:39:33.418Z,28.52
2023-06-19T16:40:35.179Z,28.51
2023-06-19T16:41:38.898Z,28.52
2023-06-19T16:42:40.646Z,28.50
2023-06-19T16:43:43.383Z,28.44
2023-06-19T16:44:45.180Z,28.41
2023-06-19T16:45:48.044Z,28.44
2023-06-19T16:46:50.198Z,28.45
2023-06-19T16:47:54.272Z,28.44
2023-06-19T16:48:56.054Z,28.38
2023-06-19T16:49:58.881Z,28.38
2023-06-19T16:51:00.716Z,28.39
2023-06-19T16:52:03.433Z,28.38
2023-06-19T16:53:07.124Z,28.31
2023-06-19T16:54:09.896Z,28.26
2023-06-19T16:55:11.746Z,28.28
2023-06-19T16:56:14.508Z,28.32
2023-06-19T16:57:16.298Z,28.33
2023-06-19T16:58:18.942Z,28.33
2023-06-19T16:59:20.766Z,28.26
2023-06-19T17:00:23.836Z,28.28
2023-06-19T17:01:25.864Z,28.31
2023-06-19T17:02:28.879Z,28.35
2023-06-19T17:03:32.103Z,28.36
2023-06-19T17:04:34.861Z,28.46
2023-06-19T17:05:36.793Z,28.57
2023-06-19T17:06:39.576Z,28.62
2023-06-19T17:07:41.324Z,28.67
2023-06-19T17:08:44.158Z,28.59
2023-06-19T17:09:47.267Z,28.49
2023-06-19T17:10:50.086Z,28.51
2023-06-19T17:11:52.920Z,28.50
2023-06-19T17:12:55.717Z,28.43
2023-06-19T17:13:57.544Z,28.37
2023-06-19T17:15:01.301Z,28.33
2023-06-19T17:16:03.127Z,28.29
2023-06-19T17:17:06.439Z,28.24
2023-06-19T17:18:11.301Z,28.19
2023-06-19T17:19:15.198Z,28.14
2023-06-19T17:20:16.995Z,28.09
2023-06-19T17:21:19.694Z,28.07
2023-06-19T17:22:21.485Z,28.09
2023-06-19T17:23:24.139Z,28.09
2023-06-19T17:24:26.015Z,28.05
2023-06-19T17:25:29.726Z,28.03
2023-06-19T17:26:31.536Z,27.95
2023-06-19T17:27:34.313Z,27.94
2023-06-19T17:28:37.074Z,27.88
2023-06-19T17:29:38.874Z,27.91
2023-06-19T17:30:41.873Z,27.93
2023-06-19T17:31:43.649Z,27.93
2023-06-19T17:32:47.618Z,27.95
2023-06-19T17:33:49.464Z,27.95
2023-06-19T17:34:53.565Z,27.98
2023-06-19T17:35:55.391Z,28.02
2023-06-19T17:36:58.035Z,28.03
2023-06-19T17:37:59.827Z,28.05
2023-06-19T17:39:02.710Z,28.07
2023-06-19T17:40:05.532Z,28.07
2023-06-19T17:41:09.287Z,28.07
2023-06-19T17:42:11.228Z,28.06
2023-06-19T17:43:13.904Z,28.06
2023-06-19T17:44:15.671Z,28.07
2023-06-19T17:45:18.513Z,28.08
2023-06-19T17:46:20.377Z,28.07
2023-06-19T17:47:23.059Z,28.03
2023-06-19T17:48:25.957Z,27.98
2023-06-19T17:49:28.693Z,27.91
2023-06-19T17:50:31.888Z,27.86
2023-06-19T17:51:35.232Z,27.83
2023-06-19T17:52:37.115Z,27.84
2023-06-19T17:53:40.938Z,27.88
2023-06-19T17:54:45.579Z,27.93
2023-06-19T17:55:48.398Z,27.96
2023-06-19T17:56:50.413Z,27.98
2023-06-19T17:57:53.109Z,27.97
2023-06-19T17:58:54.862Z,27.95
2023-06-19T17:59:57.677Z,27.89
2023-06-19T18:00:59.487Z,27.82
2023-06-19T18:02:02.419Z,27.76
2023-06-19T18:03:05.507Z,27.73
2023-06-19T18:04:08.389Z,27.59
2023-06-19T18:05:10.465Z,27.54
2023-06-19T18:06:14.694Z,27.60
2023-06-19T18:07:18.704Z,27.62
2023-06-19T18:08:21.642Z,27.64
2023-06-19T18:09:23.627Z,27.64
2023-06-19T18:10:26.713Z,27.61
2023-06-19T18:11:28.739Z,27.54
2023-06-19T18:12:31.710Z,27.48
2023-06-19T18:13:33.582Z,27.48
2023-06-19T18:14:36.416Z,27.48
2023-06-19T18:15:38.730Z,27.45
2023-06-19T18:16:41.673Z,27.43
2023-06-19T18:17:43.512Z,27.38
2023-06-19T18:18:46.319Z,27.34
2023-06-19T18:19:48.140Z,27.28
2023-06-19T18:20:51.042Z,27.18
2023-06-19T18:21:54.175Z,27.04
2023-06-19T18:22:56.901Z,26.94
2023-06-19T18:23:58.660Z,26.86
2023-06-19T18:25:01.585Z,26.85
2023-06-19T18:26:03.437Z,26.78
2023-06-19T18:27:07.538Z,26.74
2023-06-19T18:28:10.866Z,26.71
2023-06-19T18:29:12.868Z,26.66
2023-06-19T18:30:16.216Z,26.63
2023-06-19T18:31:19.189Z,26.58
2023-06-19T18:32:22.515Z,26.53
2023-06-19T18:33:24.854Z,26.48
2023-06-19T18:34:28.425Z,26.43
2023-06-19T18:35:32.367Z,26.36
2023-06-19T18:36:35.631Z,26.30
2023-06-19T18:37:40.193Z,26.22
2023-06-19T18:38:42.676Z,26.13
2023-06-19T18:39:45.799Z,26.07
2023-06-19T18:40:50.468Z,26.01
2023-06-19T18:41:54.529Z,25.95
2023-06-19T18:42:59.113Z,25.96
2023-06-19T18:44:02.507Z,25.96
2023-06-19T18:45:07.576Z,25.98
2023-06-19T18:46:11.071Z,25.98
2023-06-19T18:47:15.487Z,25.99
2023-06-19T18:48:20.960Z,25.98